Time;durP1;ratioP1;P1;durP2;ratioP2;P2;SDS_P1;SDS_P2;PMS_P1;PMS_P2;Temp;Humidity;BMP_temperature;BMP_pressure;BME280_temperature;BME280_humidity;BME280_pressure;Samples;Min_cycle;Max_cycle;Signal;HPM_P1;HPM_P2
2023/12/31 00:04:27;;;;;;;3.45;1.35;;;10.30;25.20;;;;;;20652501;28;20421;-39
2023/12/31 00:14:27;;;;;;;2.78;1.10;;;10.40;20.60;;;;;;20671338;28;20111;-39
2023/12/31 00:24:28;;;;;;;4.72;1.27;;;10.40;13.30;;;;;;20675639;28;20042;-39
2023/12/31 00:34:28;;;;;;;3.33;1.00;;;10.40;10.00;;;;;;20678250;28;20050;-39
2023/12/31 00:44:29;;;;;;;3.08;0.93;;;10.40;4.00;;;;;;20679486;28;20078;-39
2023/12/31 00:54:29;;;;;;;3.00;1.10;;;10.40;1.00;;;;;;20672144;28;20513;-40
2023/12/31 01:04:30;;;;;;;3.60;1.03;;;10.40;1.00;;;;;;20678173;28;20329;-39
2023/12/31 01:14:30;;;;;;;4.03;0.90;;;10.40;1.00;;;;;;20666027;28;20177;-39
2023/12/31 01:24:31;;;;;;;2.88;1.00;;;10.30;1.00;;;;;;20650771;28;20076;-40
2023/12/31 01:34:32;;;;;;;3.63;1.00;;;10.30;1.00;;;;;;20651906;28;20060;-39
2023/12/31 01:44:32;;;;;;;3.25;1.17;;;10.30;1.00;;;;;;20654466;28;20050;-39
2023/12/31 01:54:33;;;;;;;2.45;1.00;;;10.30;1.00;;;;;;20649592;28;20053;-39
2023/12/31 02:04:34;;;;;;;2.55;0.93;;;10.20;1.00;;;;;;20652291;28;20041;-39
2023/12/31 02:14:34;;;;;;;3.22;0.90;;;10.20;1.00;;;;;;20654213;28;20046;-39
2023/12/31 02:24:45;;;;;;;2.45;0.80;;;10.30;1.00;;;;;;20656287;28;20027;-39
2023/12/31 02:34:46;;;;;;;2.88;0.90;;;10.30;1.00;;;;;;20657163;28;20038;-40
2023/12/31 02:44:47;;;;;;;3.90;0.80;;;10.30;1.00;;;;;;20656551;28;20532;-39
2023/12/31 02:54:47;;;;;;;2.83;0.80;;;10.30;1.00;;;;;;20654004;28;20045;-39
2023/12/31 03:04:48;;;;;;;1.85;0.70;;;10.20;1.00;;;;;;20657748;28;20062;-39
2023/12/31 03:14:48;;;;;;;3.20;0.90;;;10.10;1.00;;;;;;20669726;28;20099;-39
2023/12/31 03:24:49;;;;;;;2.90;1.00;;;10.20;1.00;;;;;;20669763;28;20483;-39
2023/12/31 03:34:49;;;;;;;3.70;0.98;;;10.10;1.00;;;;;;21078656;22;20558;-40
2023/12/31 03:44:50;;;;;;;5.20;1.00;;;10.10;1.00;;;;;;20871938;28;20066;-40
2023/12/31 03:54:51;;;;;;;1.85;0.90;;;10.00;1.00;;;;;;20875820;28;20108;-40
2023/12/31 04:04:51;;;;;;;3.13;1.30;;;10.10;1.00;;;;;;20872698;28;20048;-40
2023/12/31 04:14:52;;;;;;;4.85;1.15;;;10.10;1.00;;;;;;20870993;28;20063;-40
2023/12/31 04:24:52;;;;;;;3.40;1.30;;;10.10;1.00;;;;;;20875221;28;20538;-40
2023/12/31 04:34:53;;;;;;;2.97;1.27;;;10.00;1.00;;;;;;20875187;28;20140;-40
2023/12/31 04:44:53;;;;;;;3.17;1.30;;;10.00;1.00;;;;;;20872508;28;20118;-40
2023/12/31 04:54:54;;;;;;;2.63;1.10;;;10.10;1.00;;;;;;20868321;28;20413;-40
2023/12/31 05:04:55;;;;;;;3.05;1.20;;;10.20;1.00;;;;;;20868296;28;20206;-40
2023/12/31 05:14:55;;;;;;;2.30;1.25;;;10.20;1.00;;;;;;20864746;28;20069;-40
2023/12/31 05:24:56;;;;;;;2.97;1.27;;;10.30;1.00;;;;;;20865699;28;20045;-40
2023/12/31 05:34:56;;;;;;;3.17;1.40;;;10.40;1.00;;;;;;20852531;28;20058;-40
2023/12/31 05:44:57;;;;;;;2.85;1.25;;;10.40;1.00;;;;;;20867255;28;20707;-39
2023/12/31 05:54:57;;;;;;;2.37;1.37;;;10.50;1.00;;;;;;20865678;28;20052;-39
2023/12/31 06:04:58;;;;;;;3.17;1.75;;;10.50;1.00;;;;;;20857674;28;20517;-39
2023/12/31 06:15:05;;;;;;;3.28;1.50;;;10.60;1.00;;;;;;20853834;28;20061;-39
2023/12/31 06:25:06;;;;;;;3.15;1.58;;;10.60;1.00;;;;;;20860728;28;20045;-40
2023/12/31 06:35:07;;;;;;;3.03;1.60;;;10.50;1.00;;;;;;20862363;28;20106;-40
2023/12/31 06:45:08;;;;;;;3.35;1.70;;;10.60;1.00;;;;;;20883831;28;20041;-39
2023/12/31 06:55:10;;;;;;;5.10;1.65;;;10.50;1.00;;;;;;20880321;28;20052;-39
2023/12/31 07:05:11;;;;;;;3.63;1.70;;;10.50;1.00;;;;;;20880522;28;20036;-40
2023/12/31 07:15:11;;;;;;;5.47;1.80;;;10.60;1.00;;;;;;20881127;28;20404;-40
2023/12/31 07:25:12;;;;;;;3.08;1.50;;;10.60;1.00;;;;;;20882450;28;20098;-40
2023/12/31 07:35:13;;;;;;;3.38;1.70;;;10.60;1.00;;;;;;20883434;28;20052;-40
2023/12/31 07:45:13;;;;;;;3.30;1.60;;;10.70;1.00;;;;;;20885058;28;20435;-39
2023/12/31 07:55:14;;;;;;;2.42;1.50;;;10.60;1.00;;;;;;20872373;28;20894;-39
2023/12/31 08:05:15;;;;;;;2.95;1.58;;;10.50;1.00;;;;;;20871990;28;20480;-39
2023/12/31 08:15:15;;;;;;;5.78;1.50;;;10.40;1.00;;;;;;20852292;28;20045;-39
2023/12/31 08:25:16;;;;;;;3.17;1.50;;;10.40;1.00;;;;;;20863614;28;20128;-39
2023/12/31 08:35:16;;;;;;;4.22;1.77;;;10.50;1.00;;;;;;20855448;28;20404;-40
2023/12/31 08:45:17;;;;;;;3.95;1.58;;;10.60;1.00;;;;;;20866749;28;20111;-40
2023/12/31 08:55:17;;;;;;;3.35;2.30;;;10.60;1.00;;;;;;20831449;28;20047;-39
2023/12/31 09:05:18;;;;;;;7.85;5.47;;;10.60;1.00;;;;;;20849723;28;20382;-40
2023/12/31 09:15:19;;;;;;;5.00;1.10;;;10.30;2.50;;;;;;20828761;28;20399;-41
2023/12/31 09:25:22;;;;;;;3.33;0.80;;;8.10;3.30;;;;;;20852640;28;20041;-40
2023/12/31 09:35:23;;;;;;;2.17;0.80;;;7.80;91.60;;;;;;20817869;28;21041;-40
2023/12/31 09:45:24;;;;;;;1.98;0.75;;;8.20;99.90;;;;;;20769948;28;20064;-41
2023/12/31 09:55:25;;;;;;;3.08;1.20;;;8.30;99.90;;;;;;20761758;28;20053;-41
2023/12/31 10:05:29;;;;;;;4.10;0.90;;;8.30;99.90;;;;;;20760848;28;20041;-41
2023/12/31 10:15:29;;;;;;;2.40;0.47;;;8.40;99.90;;;;;;20746214;28;20057;-41
2023/12/31 10:25:30;;;;;;;2.00;1.00;;;8.50;97.90;;;;;;20743451;28;20497;-41
2023/12/31 10:35:31;;;;;;;3.23;1.20;;;8.80;99.00;;;;;;20723427;28;20437;-41
2023/12/31 10:45:32;;;;;;;2.07;0.90;;;9.10;96.90;;;;;;20758963;28;20500;-41
2023/12/31 10:55:34;;;;;;;3.22;1.05;;;9.20;97.30;;;;;;20759392;28;20445;-41
2023/12/31 11:05:35;;;;;;;2.25;0.75;;;9.40;83.10;;;;;;20757687;28;20043;-41
2023/12/31 11:15:37;;;;;;;3.00;1.15;;;9.40;61.90;;;;;;20776839;28;20479;-41
2023/12/31 11:25:38;;;;;;;1.75;0.68;;;9.30;64.60;;;;;;20785560;28;20041;-42
2023/12/31 11:35:43;;;;;;;3.83;1.48;;;8.80;62.90;;;;;;20799513;28;20045;-41
2023/12/31 11:45:52;;;;;;;8.95;4.72;;;8.60;79.60;;;;;;20801519;28;20416;-41
2023/12/31 11:55:54;;;;;;;8.95;4.13;;;8.40;99.90;;;;;;20796962;28;20069;-41
2023/12/31 12:05:55;;;;;;;8.20;3.55;;;8.30;99.90;;;;;;20766147;28;20088;-41
2023/12/31 12:15:57;;;;;;;13.23;5.70;;;8.40;97.80;;;;;;20781840;28;20076;-41
2023/12/31 12:25:58;;;;;;;4.22;1.58;;;8.50;94.40;;;;;;20708132;28;20052;-41
2023/12/31 12:35:59;;;;;;;9.27;2.50;;;8.60;80.10;;;;;;20773542;28;20052;-41
2023/12/31 12:46:06;;;;;;;6.28;1.13;;;9.10;24.40;;;;;;20739547;28;20041;-41
2023/12/31 12:56:06;;;;;;;14.60;5.13;;;9.40;7.10;;;;;;20753217;28;20057;-41
2023/12/31 13:06:07;;;;;;;15.85;8.48;;;9.30;1.00;;;;;;20759475;28;20535;-41
2023/12/31 13:16:08;;;;;;;5.80;1.75;;;9.20;1.00;;;;;;20762237;28;20056;-41
2023/12/31 13:26:08;;;;;;;8.50;1.90;;;9.30;1.00;;;;;;20779651;28;20045;-41
2023/12/31 13:36:09;;;;;;;10.77;1.50;;;9.30;1.00;;;;;;20776970;28;20067;-41
2023/12/31 13:46:09;;;;;;;7.05;2.30;;;9.30;1.00;;;;;;20782582;28;20099;-41
2023/12/31 13:56:10;;;;;;;7.90;1.98;;;9.30;1.00;;;;;;20786470;28;20052;-41
2023/12/31 14:06:11;;;;;;;4.18;1.10;;;9.40;1.00;;;;;;20783893;28;20457;-41
2023/12/31 14:16:11;;;;;;;6.85;2.40;;;9.50;1.00;;;;;;20775416;28;20059;-41
2023/12/31 14:26:12;;;;;;;4.68;1.80;;;9.50;1.00;;;;;;20775990;28;20087;-41
2023/12/31 14:36:13;;;;;;;11.45;3.53;;;9.50;1.00;;;;;;20769338;28;20450;-41
2023/12/31 14:46:16;;;;;;;10.43;4.10;;;9.60;1.00;;;;;;20778052;28;20057;-40
2023/12/31 14:56:17;;;;;;;11.57;1.90;;;9.60;1.00;;;;;;20769994;28;20834;-41
2023/12/31 15:06:17;;;;;;;10.73;3.13;;;9.60;1.00;;;;;;20758562;28;20404;-41
2023/12/31 15:16:19;;;;;;;12.23;2.80;;;9.50;1.00;;;;;;20781041;28;20045;-41
2023/12/31 15:26:19;;;;;;;10.55;2.72;;;9.50;1.00;;;;;;20747148;28;20464;-41
2023/12/31 15:36:20;;;;;;;7.75;2.13;;;9.60;1.00;;;;;;20768684;28;20064;-41
2023/12/31 15:46:21;;;;;;;10.50;2.13;;;9.70;1.00;;;;;;20783119;28;20386;-41
2023/12/31 15:56:22;;;;;;;12.23;2.63;;;9.70;1.00;;;;;;20771895;28;21650;-40
2023/12/31 16:06:23;;;;;;;13.65;3.55;;;9.70;1.00;;;;;;20777646;28;20124;-41
2023/12/31 16:16:23;;;;;;;10.20;3.47;;;9.70;1.00;;;;;;20786562;28;20119;-41
2023/12/31 16:26:24;;;;;;;12.40;2.90;;;9.80;1.00;;;;;;20789941;28;20401;-40
2023/12/31 16:36:27;;;;;;;9.07;2.65;;;9.70;1.00;;;;;;20757497;28;20770;-40
2023/12/31 16:46:28;;;;;;;15.73;3.92;;;9.80;1.00;;;;;;20760854;28;20053;-40
2023/12/31 16:56:29;;;;;;;13.00;4.13;;;9.80;1.00;;;;;;20767774;28;20169;-41
2023/12/31 17:06:30;;;;;;;13.75;5.22;;;9.80;1.00;;;;;;20791976;28;20366;-41
2023/12/31 17:16:30;;;;;;;19.55;7.88;;;9.70;1.00;;;;;;20790430;28;20045;-41
2023/12/31 17:26:31;;;;;;;16.55;5.80;;;9.70;1.00;;;;;;20787825;28;20100;-41
2023/12/31 17:36:31;;;;;;;13.25;3.45;;;9.70;1.00;;;;;;20809737;28;20049;-41
2023/12/31 17:46:32;;;;;;;14.98;4.15;;;9.70;1.00;;;;;;20791062;28;20095;-41
2023/12/31 17:56:33;;;;;;;12.05;3.83;;;9.60;1.00;;;;;;20785457;28;20428;-41
2023/12/31 18:06:37;;;;;;;19.17;7.07;;;9.60;1.00;;;;;;20788790;28;20073;-41
2023/12/31 18:16:41;;;;;;;9.55;3.63;;;9.50;1.00;;;;;;20789531;28;20061;-41
2023/12/31 18:26:42;;;;;;;14.20;5.35;;;9.50;1.00;;;;;;20788702;28;20151;-41
2023/12/31 18:36:44;;;;;;;15.35;5.32;;;9.50;1.00;;;;;;20790816;28;20102;-41
2023/12/31 18:46:45;;;;;;;13.55;5.20;;;9.30;1.00;;;;;;20784757;28;20037;-40
2023/12/31 18:56:45;;;;;;;17.75;6.13;;;9.30;1.00;;;;;;20789945;28;20045;-40
2023/12/31 19:06:46;;;;;;;11.13;4.57;;;9.30;1.00;;;;;;20789826;28;20041;-41
2023/12/31 19:16:46;;;;;;;14.30;5.88;;;9.30;1.00;;;;;;20781588;28;20517;-41
2023/12/31 19:26:48;;;;;;;18.58;8.32;;;9.20;1.00;;;;;;20785237;28;20120;-40
2023/12/31 19:36:49;;;;;;;16.08;9.55;;;9.20;1.00;;;;;;20785419;28;20164;-40
2023/12/31 19:46:50;;;;;;;15.98;6.15;;;9.20;1.00;;;;;;20792712;28;20046;-40
2023/12/31 19:56:50;;;;;;;13.45;6.65;;;9.20;1.00;;;;;;20803144;28;20758;-40
2023/12/31 20:06:52;;;;;;;17.65;8.02;;;9.00;1.00;;;;;;20804255;28;20065;-40
2023/12/31 20:16:53;;;;;;;15.60;6.85;;;9.00;1.00;;;;;;20800207;28;20065;-40
2023/12/31 20:26:54;;;;;;;13.65;6.75;;;9.00;1.00;;;;;;20795915;28;20056;-41
2023/12/31 20:36:54;;;;;;;14.43;7.30;;;9.10;1.00;;;;;;20796304;28;20198;-41
2023/12/31 20:46:55;;;;;;;17.65;8.63;;;9.00;1.00;;;;;;20794761;28;20049;-40
2023/12/31 20:56:55;;;;;;;14.93;8.32;;;9.00;1.00;;;;;;20789227;28;20080;-40
2023/12/31 21:06:56;;;;;;;16.67;7.40;;;8.90;2.00;;;;;;20796654;28;20083;-41
2023/12/31 21:16:56;;;;;;;19.40;8.73;;;9.00;2.30;;;;;;20791307;28;20037;-40
2023/12/31 21:26:57;;;;;;;13.75;6.28;;;9.00;1.00;;;;;;20791688;28;20041;-40
2023/12/31 21:36:58;;;;;;;19.33;10.18;;;9.00;1.00;;;;;;20791530;28;20341;-40
2023/12/31 21:46:59;;;;;;;23.67;11.70;;;9.00;1.00;;;;;;20811703;28;20069;-40
2023/12/31 21:56:59;;;;;;;22.58;12.13;;;8.80;7.40;;;;;;20792798;28;20057;-40
2023/12/31 22:07:00;;;;;;;16.00;6.22;;;8.60;21.40;;;;;;20810139;28;20596;-40
2023/12/31 22:17:00;;;;;;;26.75;12.68;;;8.70;21.00;;;;;;20787699;28;20115;-40
2023/12/31 22:27:03;;;;;;;22.13;8.75;;;8.70;17.40;;;;;;20786876;28;20049;-40
2023/12/31 22:37:04;;;;;;;14.50;6.82;;;8.70;10.50;;;;;;20786466;28;20139;-40
2023/12/31 22:47:05;;;;;;;15.35;7.70;;;8.90;5.60;;;;;;20786618;28;20045;-40
2023/12/31 22:57:05;;;;;;;25.23;12.27;;;8.90;1.00;;;;;;20785758;28;20076;-40
2023/12/31 23:07:06;;;;;;;73.95;45.00;;;9.00;2.80;;;;;;20788184;28;20497;-41
2023/12/31 23:17:07;;;;;;;178.88;113.82;;;8.70;16.40;;;;;;20791960;28;20049;-40
2023/12/31 23:27:07;;;;;;;139.40;86.97;;;8.50;17.70;;;;;;20804134;28;20052;-39
2023/12/31 23:37:09;;;;;;;69.60;43.20;;;8.40;16.70;;;;;;20794189;28;20056;-40
2023/12/31 23:47:09;;;;;;;65.45;40.00;;;8.50;12.30;;;;;;20808067;28;20048;-40
2023/12/31 23:57:10;;;;;;;75.90;45.70;;;8.50;4.10;;;;;;20807930;28;20308;-40
